Pagina principale
METAR-TAF:

METAR-TAF

Aeroporti :

Aeroporto di Sarh

Sarh, Ciad

latitudine: 09-09N, longitudine: 018-23E, altezza: 365 m

Osservazione

Il bollettino è stato emesso 55 minuti fa, alle 22:00 UTC
Vento calmo
Temperature 27°C
Umidità 70%
Pressione 1013 hPa
Visibilità 10 km o più
Poco nuvoloso ad un'altezza di 5000 ft, Cumulonembo.
temporale

METAR: FTTA 162200Z 00000KT 9999 TS FEW050CB 27/21 Q1013

Ora: 23:55 (22:55 UTC)


TAF: mancante

Osservazioni e previsioni meteorologiche di più di 4000 aeroporti (messaggi METAR e TAF).

Le stazioni disponibili sono rappresentate dai dischi gialli e rossi sulla carta.

Puntare il mouse per vedere il nome della stazione.

Clicca sopra per visualizzare le osservazioni e previsioni meteorologiche.

Per cambiare la mappa : fare clic sui pulsanti verdi con una croce nera per ingrandire, il pulsante verde con un trattino per diminuire, o sulla freccia verde per le mappe adiacenti.


METAR-TAF: